createdAt,value
2022-09-15T00:00:30.385Z,999.27
2022-09-15T00:01:34.880Z,999.26
2022-09-15T00:02:39.088Z,999.25
2022-09-15T00:03:43.405Z,999.25
2022-09-15T00:04:47.721Z,999.24
2022-09-15T00:05:51.970Z,999.22
2022-09-15T00:06:56.257Z,999.20
2022-09-15T00:08:00.574Z,999.21
2022-09-15T00:09:04.953Z,999.18
2022-09-15T00:10:09.231Z,999.19
2022-09-15T00:11:13.619Z,999.19
2022-09-15T00:12:17.872Z,999.20
2022-09-15T00:13:22.134Z,999.22
2022-09-15T00:14:26.542Z,999.23
2022-09-15T00:15:30.960Z,999.23
2022-09-15T00:16:35.407Z,999.24
2022-09-15T00:17:39.583Z,999.27
2022-09-15T00:18:43.935Z,999.26
2022-09-15T00:19:48.319Z,999.25
2022-09-15T00:20:52.561Z,999.25
2022-09-15T00:21:56.960Z,999.27
2022-09-15T00:23:01.235Z,999.27
2022-09-15T00:24:05.520Z,999.29
2022-09-15T00:25:09.830Z,999.29
2022-09-15T00:26:14.237Z,999.29
2022-09-15T00:27:18.596Z,999.29
2022-09-15T00:28:22.923Z,999.29
2022-09-15T00:29:27.184Z,999.28
2022-09-15T00:30:31.492Z,999.30
2022-09-15T00:31:35.838Z,999.28
2022-09-15T00:32:40.188Z,999.28
2022-09-15T00:33:44.544Z,999.28
2022-09-15T00:34:48.769Z,999.27
2022-09-15T00:35:53.185Z,999.26
2022-09-15T00:36:57.482Z,999.26
2022-09-15T00:38:01.781Z,999.26
2022-09-15T00:39:06.095Z,999.25
2022-09-15T00:40:10.473Z,999.23
2022-09-15T00:41:14.851Z,999.22
2022-09-15T00:42:19.197Z,999.23
2022-09-15T00:43:23.429Z,999.23
2022-09-15T00:44:27.891Z,999.24
2022-09-15T00:45:32.309Z,999.19
2022-09-15T00:46:36.589Z,999.19
2022-09-15T00:47:40.956Z,999.20
2022-09-15T00:48:45.261Z,999.19
2022-09-15T00:49:49.668Z,999.19
2022-09-15T00:50:53.962Z,999.22
2022-09-15T00:51:58.240Z,999.20
2022-09-15T00:53:02.577Z,999.19
2022-09-15T00:54:06.946Z,999.15
2022-09-15T00:55:11.200Z,999.15
2022-09-15T00:56:15.497Z,999.16
2022-09-15T00:57:19.900Z,999.15
2022-09-15T00:58:24.124Z,999.12
2022-09-15T00:59:28.350Z,999.12
2022-09-15T01:00:32.795Z,999.10
2022-09-15T01:01:37.113Z,999.09
2022-09-15T01:02:41.386Z,999.07
2022-09-15T01:03:45.720Z,999.06
2022-09-15T01:04:52.721Z,999.07
2022-09-15T01:05:54.492Z,999.08
2022-09-15T01:06:58.720Z,999.09
2022-09-15T01:08:03.144Z,999.08
2022-09-15T01:09:07.469Z,999.07
2022-09-15T01:10:11.709Z,999.08
2022-09-15T01:11:16.010Z,999.09
2022-09-15T01:12:20.319Z,999.11
2022-09-15T01:13:24.625Z,999.13
2022-09-15T01:14:28.979Z,999.13
2022-09-15T01:15:33.310Z,999.15
2022-09-15T01:16:37.697Z,999.16
2022-09-15T01:17:41.963Z,999.18
2022-09-15T01:18:46.383Z,999.18
2022-09-15T01:19:50.617Z,999.17
2022-09-15T01:20:54.929Z,999.18
2022-09-15T01:21:59.331Z,999.21
2022-09-15T01:23:03.630Z,999.20
2022-09-15T01:24:07.894Z,999.21
2022-09-15T01:25:12.238Z,999.20
2022-09-15T01:26:16.497Z,999.20
2022-09-15T01:27:40.911Z,999.20
2022-09-15T01:28:25.086Z,999.18
2022-09-15T01:29:29.507Z,999.15
2022-09-15T01:30:33.761Z,999.17
2022-09-15T01:31:38.248Z,999.18
2022-09-15T01:32:42.408Z,999.17
2022-09-15T01:33:46.801Z,999.15
2022-09-15T01:34:51.097Z,999.12
2022-09-15T01:35:55.313Z,999.09
2022-09-15T01:36:59.768Z,999.09
2022-09-15T01:38:03.937Z,999.10
2022-09-15T01:39:08.225Z,999.10
2022-09-15T01:40:12.711Z,999.12
2022-09-15T01:41:16.932Z,999.14
2022-09-15T01:42:21.228Z,999.07
2022-09-15T01:43:25.534Z,999.03
2022-09-15T01:44:29.810Z,999.06
2022-09-15T01:45:34.191Z,999.09
2022-09-15T01:46:38.435Z,999.10
2022-09-15T01:47:42.715Z,999.07
2022-09-15T01:48:47.033Z,999.10
2022-09-15T01:49:51.394Z,999.11
2022-09-15T01:50:55.674Z,999.07
2022-09-15T01:51:59.971Z,999.07
2022-09-15T01:53:04.357Z,999.02
2022-09-15T01:54:08.656Z,999.02
2022-09-15T01:55:12.952Z,998.98
2022-09-15T01:56:17.364Z,998.97
2022-09-15T01:57:21.626Z,999.00
2022-09-15T01:58:25.921Z,998.99
2022-09-15T01:59:30.276Z,998.95
2022-09-15T02:00:34.634Z,998.98
2022-09-15T02:01:38.964Z,998.96
2022-09-15T02:02:43.121Z,998.97
2022-09-15T02:03:47.412Z,998.96
2022-09-15T02:04:51.736Z,998.94
2022-09-15T02:05:56.025Z,998.95
2022-09-15T02:07:00.354Z,998.92
2022-09-15T02:08:04.741Z,998.90
2022-09-15T02:09:08.987Z,998.91
2022-09-15T02:10:13.429Z,998.91
2022-09-15T02:11:17.610Z,998.95
2022-09-15T02:12:21.964Z,998.95
2022-09-15T02:13:26.232Z,998.94
2022-09-15T02:14:30.506Z,998.95
2022-09-15T02:15:34.772Z,998.98
2022-09-15T02:16:39.218Z,998.96
2022-09-15T02:17:43.356Z,998.91
2022-09-15T02:18:47.653Z,998.93
2022-09-15T02:19:52.014Z,998.92
2022-09-15T02:20:56.309Z,998.93
2022-09-15T02:22:00.713Z,998.90
2022-09-15T02:23:05.095Z,998.90
2022-09-15T02:24:09.461Z,998.90
2022-09-15T02:25:13.723Z,998.91
2022-09-15T02:26:18.068Z,998.89
2022-09-15T02:27:22.343Z,998.92
2022-09-15T02:28:26.715Z,998.87
2022-09-15T02:29:31.005Z,998.86
2022-09-15T02:30:35.264Z,998.84
2022-09-15T02:31:39.772Z,998.84
2022-09-15T02:32:44.024Z,998.86
2022-09-15T02:33:48.299Z,998.84
2022-09-15T02:34:52.668Z,998.87
2022-09-15T02:35:56.933Z,998.86
2022-09-15T02:37:01.432Z,998.87
2022-09-15T02:38:05.639Z,998.86
2022-09-15T02:39:10.018Z,998.85
2022-09-15T02:40:14.398Z,998.84
2022-09-15T02:41:18.707Z,998.84
2022-09-15T02:42:22.971Z,998.88
2022-09-15T02:43:27.244Z,998.86
2022-09-15T02:44:31.666Z,998.87
2022-09-15T02:45:35.945Z,998.86
2022-09-15T02:46:40.316Z,998.86
2022-09-15T02:47:44.605Z,998.85
2022-09-15T02:48:49.001Z,998.84
2022-09-15T02:49:53.241Z,998.86
2022-09-15T02:50:57.497Z,998.87
2022-09-15T02:52:01.891Z,998.89
2022-09-15T02:53:06.170Z,998.92
2022-09-15T02:54:10.505Z,998.89
2022-09-15T02:55:14.886Z,998.88
2022-09-15T02:56:19.086Z,998.86
2022-09-15T02:57:23.450Z,998.86
2022-09-15T02:58:27.776Z,998.87
2022-09-15T02:59:31.994Z,998.86
2022-09-15T03:00:36.454Z,998.88
2022-09-15T03:01:40.815Z,998.88
2022-09-15T03:02:44.984Z,998.90
2022-09-15T03:03:49.269Z,998.92
2022-09-15T03:04:53.590Z,998.92
2022-09-15T03:05:57.864Z,998.91
2022-09-15T03:07:02.145Z,998.90
2022-09-15T03:08:06.425Z,998.88
2022-09-15T03:09:10.696Z,998.90
2022-09-15T03:10:15.040Z,998.90
2022-09-15T03:11:19.331Z,998.92
2022-09-15T03:12:23.589Z,998.90
2022-09-15T03:13:27.985Z,998.89
2022-09-15T03:14:32.349Z,998.90
2022-09-15T03:15:36.574Z,998.90
2022-09-15T03:16:40.999Z,998.92
2022-09-15T03:17:45.189Z,998.92
2022-09-15T03:18:49.571Z,998.90
2022-09-15T03:19:53.888Z,998.92
2022-09-15T03:20:58.208Z,998.92
2022-09-15T03:22:02.486Z,998.92
2022-09-15T03:23:06.755Z,998.92
2022-09-15T03:24:11.073Z,998.91
2022-09-15T03:25:15.447Z,998.94
2022-09-15T03:26:19.669Z,998.91
2022-09-15T03:27:24.034Z,998.89
2022-09-15T03:28:28.269Z,998.89
2022-09-15T03:29:32.635Z,998.87
2022-09-15T03:30:37.014Z,998.86
2022-09-15T03:31:41.442Z,998.87
2022-09-15T03:32:45.542Z,998.88
2022-09-15T03:33:49.822Z,998.88
2022-09-15T03:34:58.393Z,998.88
2022-09-15T03:35:58.522Z,998.92
2022-09-15T03:37:02.776Z,998.92
2022-09-15T03:38:07.025Z,998.90
2022-09-15T03:39:11.288Z,998.87
2022-09-15T03:40:15.682Z,998.88
2022-09-15T03:41:19.853Z,998.88
2022-09-15T03:42:24.193Z,998.88
2022-09-15T03:43:28.453Z,998.84
2022-09-15T03:44:32.870Z,998.83
2022-09-15T03:45:37.234Z,998.86
2022-09-15T03:46:41.425Z,998.93
2022-09-15T03:47:45.700Z,998.96
2022-09-15T03:48:50.056Z,998.97
2022-09-15T03:49:54.305Z,998.99
2022-09-15T03:50:58.606Z,998.99
2022-09-15T03:52:02.903Z,998.99
2022-09-15T03:53:07.296Z,999.01
2022-09-15T03:54:11.529Z,999.01
2022-09-15T03:55:15.806Z,999.02
2022-09-15T03:56:20.059Z,999.01
2022-09-15T03:57:24.417Z,999.00
2022-09-15T03:58:30.822Z,998.98
2022-09-15T03:59:33.015Z,998.94
2022-09-15T04:00:37.418Z,998.93
2022-09-15T04:01:41.712Z,998.92
2022-09-15T04:02:45.971Z,998.90
2022-09-15T04:03:51.537Z,998.88
2022-09-15T04:04:54.592Z,998.83
2022-09-15T04:05:58.825Z,998.81
2022-09-15T04:07:03.130Z,998.86
2022-09-15T04:08:07.426Z,998.87
2022-09-15T04:09:11.735Z,998.83
2022-09-15T04:10:16.218Z,998.82
2022-09-15T04:11:20.368Z,998.76
2022-09-15T04:12:24.670Z,998.79
2022-09-15T04:13:28.944Z,998.73
2022-09-15T04:14:33.256Z,998.68
2022-09-15T04:15:37.606Z,998.71
2022-09-15T04:16:41.922Z,998.71
2022-09-15T04:17:46.094Z,998.82
2022-09-15T04:18:50.455Z,998.81
2022-09-15T04:19:54.815Z,998.85
2022-09-15T04:20:59.130Z,998.86
2022-09-15T04:22:03.477Z,998.86
2022-09-15T04:23:07.832Z,998.82
2022-09-15T04:24:12.019Z,998.84
2022-09-15T04:25:16.420Z,998.82
2022-09-15T04:26:20.802Z,998.80
2022-09-15T04:27:25.023Z,998.79
2022-09-15T04:28:29.321Z,998.77
2022-09-15T04:29:33.584Z,998.82
2022-09-15T04:30:37.949Z,998.84
2022-09-15T04:31:42.283Z,998.84
2022-09-15T04:32:46.684Z,998.86
2022-09-15T04:33:50.874Z,998.83
2022-09-15T04:34:55.212Z,998.78
2022-09-15T04:35:59.448Z,998.78
2022-09-15T04:37:03.806Z,998.78
2022-09-15T04:38:08.103Z,998.75
2022-09-15T04:39:12.369Z,998.72
2022-09-15T04:40:16.737Z,998.72
2022-09-15T04:41:20.914Z,998.72
2022-09-15T04:42:25.254Z,998.71
2022-09-15T04:43:29.627Z,998.72
2022-09-15T04:44:33.967Z,998.73
2022-09-15T04:45:38.189Z,998.75
2022-09-15T04:46:42.700Z,998.74
2022-09-15T04:47:46.806Z,998.72
2022-09-15T04:48:51.096Z,998.74
2022-09-15T04:49:55.354Z,998.76
2022-09-15T04:50:59.679Z,998.78
2022-09-15T04:52:07.752Z,998.79
2022-09-15T04:53:08.225Z,998.77
2022-09-15T04:54:12.481Z,998.76
2022-09-15T04:55:16.785Z,998.76
2022-09-15T04:56:21.084Z,998.76
2022-09-15T04:57:25.463Z,998.73
2022-09-15T04:58:29.693Z,998.73
2022-09-15T04:59:34.073Z,998.74
2022-09-15T05:00:38.394Z,998.76
2022-09-15T05:01:42.693Z,998.74
2022-09-15T05:02:46.969Z,998.76
2022-09-15T05:03:51.338Z,998.79
2022-09-15T05:04:55.614Z,998.84
2022-09-15T05:05:59.990Z,998.87
2022-09-15T05:07:04.364Z,998.88
2022-09-15T05:08:08.680Z,998.88
2022-09-15T05:09:12.901Z,998.85
2022-09-15T05:10:17.164Z,998.82
2022-09-15T05:11:21.577Z,998.82
2022-09-15T05:12:25.842Z,998.81
2022-09-15T05:13:30.093Z,998.80
2022-09-15T05:14:34.367Z,998.77
2022-09-15T05:15:38.710Z,998.77
2022-09-15T05:16:43.038Z,998.77
2022-09-15T05:17:47.249Z,998.76
2022-09-15T05:18:51.603Z,998.73
2022-09-15T05:19:55.861Z,998.72
2022-09-15T05:21:00.159Z,998.72
2022-09-15T05:22:04.540Z,998.71
2022-09-15T05:23:08.934Z,998.67
2022-09-15T05:24:13.175Z,998.68
2022-09-15T05:25:17.477Z,998.71
2022-09-15T05:26:21.793Z,998.69
2022-09-15T05:27:26.150Z,998.69
2022-09-15T05:28:30.441Z,998.70
2022-09-15T05:29:34.802Z,998.70
2022-09-15T05:30:43.606Z,998.72
2022-09-15T05:31:43.592Z,998.71
2022-09-15T05:32:47.761Z,998.69
2022-09-15T05:33:52.037Z,998.67
2022-09-15T05:34:56.451Z,998.70
2022-09-15T05:36:00.703Z,998.70
2022-09-15T05:37:05.077Z,998.72
2022-09-15T05:38:09.427Z,998.71
2022-09-15T05:39:13.730Z,998.76
2022-09-15T05:40:18.013Z,998.77
2022-09-15T05:41:22.281Z,998.81
2022-09-15T05:42:26.702Z,998.78
2022-09-15T05:43:30.912Z,998.77
2022-09-15T05:44:35.276Z,998.78
2022-09-15T05:45:39.555Z,998.77
2022-09-15T05:46:43.988Z,998.78
2022-09-15T05:47:48.190Z,998.79
2022-09-15T05:48:52.708Z,998.79
2022-09-15T05:49:56.914Z,998.80
2022-09-15T05:51:01.268Z,998.81
2022-09-15T05:52:05.533Z,998.80
2022-09-15T05:53:09.840Z,998.80
2022-09-15T05:54:14.101Z,998.83
2022-09-15T05:55:18.507Z,998.79
2022-09-15T05:56:22.754Z,998.78
2022-09-15T05:57:27.032Z,998.77
2022-09-15T05:58:31.312Z,998.80
2022-09-15T05:59:35.668Z,998.78
2022-09-15T06:00:39.924Z,998.79
2022-09-15T06:01:44.355Z,998.78
2022-09-15T06:02:48.736Z,998.75
2022-09-15T06:03:52.998Z,998.76
2022-09-15T06:04:57.296Z,998.76
2022-09-15T06:06:01.670Z,998.75
2022-09-15T06:07:05.911Z,998.72
2022-09-15T06:08:10.302Z,998.75
2022-09-15T06:09:14.555Z,998.75
2022-09-15T06:10:18.858Z,998.77
2022-09-15T06:11:23.236Z,998.77
2022-09-15T06:12:27.571Z,998.77
2022-09-15T06:13:31.830Z,998.74
2022-09-15T06:14:36.088Z,998.76
2022-09-15T06:15:40.383Z,998.74
2022-09-15T06:16:44.686Z,998.77
2022-09-15T06:17:49.070Z,998.76
2022-09-15T06:18:53.534Z,998.72
2022-09-15T06:19:57.735Z,998.72
2022-09-15T06:21:02.027Z,998.71
2022-09-15T06:22:06.353Z,998.69
2022-09-15T06:23:10.780Z,998.66
2022-09-15T06:24:15.032Z,998.63
2022-09-15T06:25:19.425Z,998.62
2022-09-15T06:26:23.780Z,998.63
2022-09-15T06:27:28.080Z,998.61
2022-09-15T06:28:32.452Z,998.61
2022-09-15T06:29:36.794Z,998.64
2022-09-15T06:30:41.081Z,998.63
2022-09-15T06:31:45.504Z,998.62
2022-09-15T06:32:49.712Z,998.60
2022-09-15T06:33:54.407Z,998.60
2022-09-15T06:34:58.342Z,998.58
2022-09-15T06:36:02.656Z,998.58
2022-09-15T06:37:07.027Z,998.56
2022-09-15T06:38:11.425Z,998.58
2022-09-15T06:39:15.773Z,998.60
2022-09-15T06:40:20.161Z,998.59
2022-09-15T06:41:24.402Z,998.63
2022-09-15T06:42:28.808Z,998.65
2022-09-15T06:43:33.247Z,998.62
2022-09-15T06:44:37.552Z,998.61
2022-09-15T06:45:41.956Z,998.60
2022-09-15T06:46:46.272Z,998.65
2022-09-15T06:48:07.387Z,998.63
2022-09-15T06:48:55.089Z,998.65
2022-09-15T06:49:59.411Z,998.67
2022-09-15T06:51:03.762Z,998.70
2022-09-15T06:52:08.165Z,998.69
2022-09-15T06:53:12.456Z,998.68
2022-09-15T06:54:16.755Z,998.69
2022-09-15T06:55:21.102Z,998.71
2022-09-15T06:56:25.465Z,998.73
2022-09-15T06:57:29.788Z,998.71
2022-09-15T06:58:34.224Z,998.72
2022-09-15T06:59:39.501Z,998.71
2022-09-15T07:00:43.379Z,998.73
2022-09-15T07:01:47.840Z,998.75
2022-09-15T07:02:52.110Z,998.76
2022-09-15T07:03:56.366Z,998.75
2022-09-15T07:05:00.660Z,998.74
2022-09-15T07:06:05.012Z,998.73
2022-09-15T07:07:09.332Z,998.73
2022-09-15T07:08:13.706Z,998.75
2022-09-15T07:09:18.079Z,998.75
2022-09-15T07:10:22.490Z,998.75
2022-09-15T07:11:26.746Z,998.77
2022-09-15T07:12:31.175Z,998.75
2022-09-15T07:13:35.490Z,998.76
2022-09-15T07:14:39.832Z,998.77
2022-09-15T07:15:44.114Z,998.78
2022-09-15T07:16:48.555Z,998.83
2022-09-15T07:17:52.834Z,998.84
2022-09-15T07:18:57.139Z,998.86
2022-09-15T07:20:01.412Z,998.86
2022-09-15T07:21:05.727Z,998.87
2022-09-15T07:22:10.099Z,998.85
2022-09-15T07:23:14.486Z,998.87
2022-09-15T07:24:18.825Z,998.92
2022-09-15T07:25:23.111Z,998.91
2022-09-15T07:26:27.409Z,998.89
2022-09-15T07:27:31.857Z,998.87
2022-09-15T07:28:36.090Z,998.93
2022-09-15T07:29:40.485Z,998.91
2022-09-15T07:30:44.841Z,998.94
2022-09-15T07:31:49.299Z,998.92
2022-09-15T07:32:53.506Z,998.88
2022-09-15T07:33:57.819Z,998.89
2022-09-15T07:35:02.262Z,998.91
2022-09-15T07:36:06.519Z,998.94
2022-09-15T07:37:10.794Z,998.95
2022-09-15T07:38:15.260Z,998.92
2022-09-15T07:39:25.540Z,998.90
2022-09-15T07:40:28.619Z,998.91
2022-09-15T07:41:32.766Z,998.94
2022-09-15T07:42:37.147Z,998.95
2022-09-15T07:43:41.469Z,998.94
2022-09-15T07:44:45.781Z,998.96
2022-09-15T07:45:50.249Z,998.96
2022-09-15T07:46:54.474Z,998.95
2022-09-15T07:47:58.789Z,998.96
2022-09-15T07:49:03.394Z,998.96
2022-09-15T07:50:07.416Z,998.92
2022-09-15T07:51:11.771Z,998.96
2022-09-15T07:52:16.032Z,998.98
2022-09-15T07:53:20.410Z,998.96
2022-09-15T07:54:24.832Z,999.01
2022-09-15T07:55:29.226Z,998.97
2022-09-15T07:56:33.547Z,999.00
2022-09-15T07:57:43.852Z,999.04
2022-09-15T07:58:46.876Z,999.01
2022-09-15T07:59:51.095Z,999.02
2022-09-15T08:00:55.461Z,999.04
2022-09-15T08:01:59.773Z,999.02
2022-09-15T08:03:03.993Z,999.04
2022-09-15T08:04:08.403Z,999.01
2022-09-15T08:05:12.685Z,999.03
2022-09-15T08:06:17.124Z,999.02
2022-09-15T08:07:21.601Z,999.04
2022-09-15T08:08:25.888Z,999.04
2022-09-15T08:09:30.220Z,999.05
2022-09-15T08:10:34.489Z,999.07
2022-09-15T08:11:38.805Z,999.09
2022-09-15T08:12:43.143Z,999.11
2022-09-15T08:13:47.437Z,999.09
2022-09-15T08:14:51.757Z,999.08
2022-09-15T08:15:56.302Z,999.08
2022-09-15T08:17:00.554Z,999.05
2022-09-15T08:18:04.867Z,999.04
2022-09-15T08:19:09.244Z,999.05
2022-09-15T08:20:13.704Z,999.06
2022-09-15T08:21:18.114Z,999.07
2022-09-15T08:22:22.388Z,999.09
2022-09-15T08:23:26.813Z,999.13
2022-09-15T08:24:31.180Z,999.14
2022-09-15T08:25:35.588Z,999.13
2022-09-15T08:26:39.820Z,999.12
2022-09-15T08:27:44.146Z,999.14
2022-09-15T08:28:48.467Z,999.14
2022-09-15T08:29:52.956Z,999.14
2022-09-15T08:30:57.275Z,999.11
2022-09-15T08:32:01.543Z,999.12
2022-09-15T08:33:05.951Z,999.10
2022-09-15T08:34:24.385Z,999.11
2022-09-15T08:35:27.623Z,999.08
2022-09-15T08:36:31.997Z,999.07
2022-09-15T08:37:36.232Z,999.12
2022-09-15T08:38:40.699Z,999.12
2022-09-15T08:39:45.051Z,999.10
2022-09-15T08:40:49.279Z,999.11
2022-09-15T08:41:53.704Z,999.11
2022-09-15T08:42:57.983Z,999.11
2022-09-15T08:44:02.420Z,999.17
2022-09-15T08:45:06.761Z,999.12
2022-09-15T08:46:11.181Z,999.12
2022-09-15T08:47:15.500Z,999.09
2022-09-15T08:48:19.937Z,999.10
2022-09-15T08:49:47.529Z,999.14
2022-09-15T08:50:28.593Z,999.10
2022-09-15T08:51:32.970Z,999.10
2022-09-15T08:52:37.306Z,999.09
2022-09-15T08:53:41.680Z,999.12
2022-09-15T08:54:46.039Z,999.12
2022-09-15T08:55:50.449Z,999.15
2022-09-15T08:56:54.805Z,999.15
2022-09-15T08:57:59.189Z,999.17
2022-09-15T08:59:03.512Z,999.15
2022-09-15T09:00:07.920Z,999.14
2022-09-15T09:01:12.351Z,999.18
2022-09-15T09:02:16.625Z,999.21
2022-09-15T09:03:20.964Z,999.22
2022-09-15T09:04:25.322Z,999.23
2022-09-15T09:05:29.618Z,999.24
2022-09-15T09:06:33.970Z,999.27
2022-09-15T09:07:38.365Z,999.26
2022-09-15T09:08:42.747Z,999.24
2022-09-15T09:09:47.000Z,999.25
2022-09-15T09:10:51.454Z,999.31
2022-09-15T09:11:55.813Z,999.29
2022-09-15T09:13:00.069Z,999.30
2022-09-15T09:14:04.475Z,999.29
2022-09-15T09:15:08.866Z,999.26
2022-09-15T09:16:13.229Z,999.33
2022-09-15T09:17:17.614Z,999.30
2022-09-15T09:18:21.992Z,999.35
2022-09-15T09:19:30.023Z,999.38
2022-09-15T09:20:30.572Z,999.44
2022-09-15T09:21:34.910Z,999.40
2022-09-15T09:22:39.301Z,999.39
2022-09-15T09:23:43.645Z,999.40
2022-09-15T09:24:48.004Z,999.40
2022-09-15T09:25:52.405Z,999.41
2022-09-15T09:26:56.674Z,999.41
2022-09-15T09:28:01.118Z,999.42
2022-09-15T09:29:05.421Z,999.41
2022-09-15T09:30:09.854Z,999.38
2022-09-15T09:31:14.228Z,999.39
2022-09-15T09:32:21.504Z,999.43
2022-09-15T09:33:22.899Z,999.40
2022-09-15T09:34:27.306Z,999.43
2022-09-15T09:35:31.675Z,999.45
2022-09-15T09:36:35.993Z,999.42
2022-09-15T09:37:40.308Z,999.39
2022-09-15T09:38:44.760Z,999.36
2022-09-15T09:39:49.208Z,999.37
2022-09-15T09:40:53.519Z,999.44
2022-09-15T09:41:57.800Z,999.43
2022-09-15T09:43:02.191Z,999.43
2022-09-15T09:44:06.483Z,999.45
2022-09-15T09:45:10.806Z,999.43
2022-09-15T09:46:15.424Z,999.46
2022-09-15T09:47:19.589Z,999.47
2022-09-15T09:48:23.967Z,999.48
2022-09-15T09:49:28.308Z,999.49
2022-09-15T09:50:32.585Z,999.50
2022-09-15T09:51:36.932Z,999.48
2022-09-15T09:52:41.267Z,999.51
2022-09-15T09:53:45.555Z,999.49
2022-09-15T09:54:50.017Z,999.49
2022-09-15T09:55:54.283Z,999.48
2022-09-15T09:56:58.671Z,999.47
2022-09-15T09:58:03.032Z,999.47
2022-09-15T09:59:07.485Z,999.44
2022-09-15T10:00:11.823Z,999.44
2022-09-15T10:01:16.331Z,999.38
2022-09-15T10:02:20.724Z,999.40
2022-09-15T10:03:29.310Z,999.37
2022-09-15T10:04:29.404Z,999.37
2022-09-15T10:05:33.915Z,999.39
2022-09-15T10:06:38.131Z,999.35
2022-09-15T10:07:42.553Z,999.38
2022-09-15T10:08:47.007Z,999.41
2022-09-15T10:09:51.353Z,999.41
2022-09-15T10:10:55.666Z,999.39
2022-09-15T10:11:59.974Z,999.40
2022-09-15T10:13:04.322Z,999.43
2022-09-15T10:14:08.644Z,999.33
2022-09-15T10:15:13.078Z,999.33
2022-09-15T10:16:17.581Z,999.22
2022-09-15T10:17:21.776Z,999.33
2022-09-15T10:18:26.304Z,999.27
2022-09-15T10:19:30.548Z,999.26
2022-09-15T10:20:34.956Z,999.25
2022-09-15T10:21:39.327Z,999.27
2022-09-15T10:22:43.759Z,999.28
2022-09-15T10:23:48.135Z,999.29
2022-09-15T10:24:52.434Z,999.27
2022-09-15T10:26:00.592Z,999.29
2022-09-15T10:27:01.208Z,999.27
2022-09-15T10:28:05.695Z,999.28
2022-09-15T10:29:10.047Z,999.29
2022-09-15T10:30:14.326Z,999.25
2022-09-15T10:31:18.788Z,999.28
2022-09-15T10:32:25.494Z,999.28
2022-09-15T10:33:27.439Z,999.24
2022-09-15T10:34:31.786Z,999.24
2022-09-15T10:35:36.206Z,999.26
2022-09-15T10:36:40.566Z,999.24
2022-09-15T10:37:44.883Z,999.26
2022-09-15T10:38:49.405Z,999.26
2022-09-15T10:39:53.904Z,999.22
2022-09-15T10:40:58.121Z,999.22
2022-09-15T10:42:02.494Z,999.25
2022-09-15T10:43:06.917Z,999.16
2022-09-15T10:44:11.293Z,999.18
2022-09-15T10:45:15.594Z,999.18
2022-09-15T10:46:20.039Z,999.22
2022-09-15T10:47:24.302Z,999.26
2022-09-15T10:48:28.724Z,999.20
2022-09-15T10:49:33.045Z,999.17
2022-09-15T10:50:37.364Z,999.11
2022-09-15T10:51:41.724Z,999.16
2022-09-15T10:52:49.136Z,999.17
2022-09-15T10:53:55.666Z,999.19
2022-09-15T10:54:56.924Z,999.24
2022-09-15T10:56:01.296Z,999.23
2022-09-15T10:57:05.671Z,999.22
2022-09-15T10:58:10.126Z,999.23
2022-09-15T10:59:14.401Z,999.30
2022-09-15T11:00:18.917Z,999.27
2022-09-15T11:01:23.288Z,999.30
2022-09-15T11:02:27.661Z,999.32
2022-09-15T11:03:31.897Z,999.31
2022-09-15T11:04:36.180Z,999.35
2022-09-15T11:05:40.631Z,999.32
2022-09-15T11:06:44.917Z,999.31
2022-09-15T11:07:49.242Z,999.34
2022-09-15T11:08:53.695Z,999.28
2022-09-15T11:09:58.056Z,999.30
2022-09-15T11:11:02.331Z,999.34
2022-09-15T11:12:06.666Z,999.32
2022-09-15T11:13:11.024Z,999.34
2022-09-15T11:14:15.481Z,999.33
2022-09-15T11:15:19.750Z,999.28
2022-09-15T11:16:24.070Z,999.31
2022-09-15T11:17:28.411Z,999.31
2022-09-15T11:18:32.995Z,999.33
2022-09-15T11:19:37.232Z,999.31
2022-09-15T11:20:41.655Z,999.28
2022-09-15T11:21:45.943Z,999.35
2022-09-15T11:22:50.323Z,999.39
2022-09-15T11:23:54.673Z,999.41
2022-09-15T11:24:59.366Z,999.36
2022-09-15T11:26:03.551Z,999.35
2022-09-15T11:27:08.001Z,999.34
2022-09-15T11:28:12.376Z,999.38
2022-09-15T11:29:16.768Z,999.36
2022-09-15T11:30:21.090Z,999.35
2022-09-15T11:31:25.577Z,999.37
2022-09-15T11:32:29.800Z,999.32
2022-09-15T11:33:34.195Z,999.34
2022-09-15T11:34:38.467Z,999.34
2022-09-15T11:35:42.840Z,999.34
2022-09-15T11:36:47.262Z,999.33
2022-09-15T11:37:51.514Z,999.35
2022-09-15T11:38:55.958Z,999.35
2022-09-15T11:40:00.559Z,999.39
2022-09-15T11:41:04.637Z,999.42
2022-09-15T11:42:09.088Z,999.42
2022-09-15T11:43:13.348Z,999.45
2022-09-15T11:44:17.718Z,999.46
2022-09-15T11:45:22.113Z,999.45
2022-09-15T11:46:26.575Z,999.46
2022-09-15T11:47:34.941Z,999.48
2022-09-15T11:48:38.197Z,999.43
2022-09-15T11:49:42.507Z,999.46
2022-09-15T11:50:46.872Z,999.47
2022-09-15T11:51:51.273Z,999.47
2022-09-15T11:52:55.576Z,999.49
2022-09-15T11:53:59.988Z,999.50
2022-09-15T11:55:04.354Z,999.54
2022-09-15T11:56:08.663Z,999.55
2022-09-15T11:57:13.089Z,999.52
2022-09-15T11:58:21.605Z,999.55
2022-09-15T11:59:21.690Z,999.56
2022-09-15T12:00:25.966Z,999.53
2022-09-15T12:01:30.433Z,999.50
2022-09-15T12:02:34.759Z,999.49
2022-09-15T12:03:39.066Z,999.48
2022-09-15T12:04:43.439Z,999.46
2022-09-15T12:05:47.819Z,999.46
2022-09-15T12:06:52.234Z,999.42
2022-09-15T12:07:56.494Z,999.41
2022-09-15T12:09:00.856Z,999.39
2022-09-15T12:10:05.150Z,999.39
2022-09-15T12:11:09.571Z,999.43
2022-09-15T12:12:13.941Z,999.42
2022-09-15T12:13:18.412Z,999.44
2022-09-15T12:14:22.745Z,999.41
2022-09-15T12:15:27.190Z,999.46
2022-09-15T12:16:31.547Z,999.40
2022-09-15T12:17:36.018Z,999.36
2022-09-15T12:18:42.893Z,999.34
2022-09-15T12:19:44.633Z,999.34
2022-09-15T12:20:49.097Z,999.31
2022-09-15T12:21:53.516Z,999.32
2022-09-15T12:22:57.876Z,999.32
2022-09-15T12:24:02.226Z,999.24
2022-09-15T12:25:06.530Z,999.21
2022-09-15T12:26:11.029Z,999.18
2022-09-15T12:27:15.370Z,999.19
2022-09-15T12:28:19.877Z,999.26
2022-09-15T12:29:24.138Z,999.29
2022-09-15T12:30:28.532Z,999.28
2022-09-15T12:31:32.981Z,999.32
2022-09-15T12:32:37.319Z,999.33
2022-09-15T12:33:41.683Z,999.35
2022-09-15T12:34:46.018Z,999.34
2022-09-15T12:35:50.335Z,999.34
2022-09-15T12:36:54.736Z,999.31
2022-09-15T12:37:59.017Z,999.29
2022-09-15T12:39:03.444Z,999.30
2022-09-15T12:40:07.933Z,999.29
2022-09-15T12:41:12.222Z,999.29
2022-09-15T12:42:16.635Z,999.29
2022-09-15T12:43:20.949Z,999.31
2022-09-15T12:44:25.348Z,999.31
2022-09-15T12:45:29.742Z,999.33
2022-09-15T12:46:34.180Z,999.31
2022-09-15T12:47:38.406Z,999.31
2022-09-15T12:48:46.753Z,999.30
2022-09-15T12:49:47.191Z,999.30
2022-09-15T12:50:51.501Z,999.30
2022-09-15T12:51:55.860Z,999.30
2022-09-15T12:53:00.186Z,999.29
2022-09-15T12:54:04.589Z,999.27
2022-09-15T12:55:08.867Z,999.28
2022-09-15T12:56:16.299Z,999.24
2022-09-15T12:57:19.837Z,999.29
2022-09-15T12:58:24.178Z,999.25
2022-09-15T12:59:28.438Z,999.24
2022-09-15T13:00:32.798Z,999.18
2022-09-15T13:01:37.105Z,999.12
2022-09-15T13:02:41.499Z,999.20
2022-09-15T13:03:45.986Z,999.20
2022-09-15T13:04:50.250Z,999.21
2022-09-15T13:05:54.517Z,999.21
2022-09-15T13:06:58.845Z,999.18
2022-09-15T13:08:03.253Z,999.18
2022-09-15T13:09:07.626Z,999.18
2022-09-15T13:10:12.068Z,999.20
2022-09-15T13:11:16.369Z,999.25
2022-09-15T13:12:20.829Z,999.22
2022-09-15T13:13:27.749Z,999.22
2022-09-15T13:14:29.646Z,999.24
2022-09-15T13:15:34.160Z,999.21
2022-09-15T13:16:38.415Z,999.23
2022-09-15T13:17:42.879Z,999.23
2022-09-15T13:18:47.255Z,999.19
2022-09-15T13:19:51.625Z,999.15
2022-09-15T13:20:56.076Z,999.18
2022-09-15T13:22:00.428Z,999.19
2022-09-15T13:23:04.833Z,999.17